createdAt,value
2022-08-24T00:00:54.528Z,20.10
2022-08-24T00:01:56.682Z,20.12
2022-08-24T00:02:59.916Z,20.12
2022-08-24T00:04:02.652Z,20.07
2022-08-24T00:05:14.087Z,20.09
2022-08-24T00:06:19.437Z,20.07
2022-08-24T00:07:27.236Z,20.05
2022-08-24T00:08:30.585Z,20.05
2022-08-24T00:09:33.986Z,20.03
2022-08-24T00:10:37.182Z,20.02
2022-08-24T00:11:39.309Z,19.99
2022-08-24T00:12:43.287Z,19.98
2022-08-24T00:13:46.050Z,19.94
2022-08-24T00:14:49.408Z,19.96
2022-08-24T00:15:52.010Z,19.93
2022-08-24T00:16:55.297Z,19.89
2022-08-24T00:17:57.477Z,19.92
2022-08-24T00:19:00.907Z,19.91
2022-08-24T00:20:03.919Z,19.90
2022-08-24T00:21:09.164Z,19.88
2022-08-24T00:22:11.281Z,19.85
2022-08-24T00:23:14.344Z,19.84
2022-08-24T00:24:16.421Z,19.82
2022-08-24T00:25:20.502Z,19.80
2022-08-24T00:26:28.734Z,19.79
2022-08-24T00:27:32.445Z,19.77
2022-08-24T00:28:35.718Z,19.76
2022-08-24T00:29:39.055Z,19.75
2022-08-24T00:30:41.160Z,19.73
2022-08-24T00:31:44.455Z,19.68
2022-08-24T00:32:48.043Z,19.70
2022-08-24T00:33:51.110Z,19.69
2022-08-24T00:34:59.302Z,19.67
2022-08-24T00:36:02.866Z,19.66
2022-08-24T00:37:08.570Z,19.65
2022-08-24T00:38:11.720Z,19.62
2022-08-24T00:39:14.124Z,19.61
2022-08-24T00:40:19.831Z,19.57
2022-08-24T00:41:22.679Z,19.59
2022-08-24T00:42:26.178Z,19.58
2022-08-24T00:43:28.806Z,19.56
2022-08-24T00:44:31.979Z,19.55
2022-08-24T00:45:40.994Z,19.53
2022-08-24T00:46:49.446Z,19.50
2022-08-24T00:47:56.091Z,19.52
2022-08-24T00:49:04.166Z,19.50
2022-08-24T00:50:10.258Z,19.50
2022-08-24T00:51:19.263Z,19.47
2022-08-24T00:52:26.421Z,19.46
2022-08-24T00:53:33.724Z,19.46
2022-08-24T00:54:46.131Z,19.44
2022-08-24T00:55:52.464Z,19.43
2022-08-24T00:56:58.629Z,19.41
2022-08-24T00:58:11.269Z,19.40
2022-08-24T00:59:23.856Z,19.39
2022-08-24T01:00:31.504Z,19.38
2022-08-24T01:01:35.534Z,19.36
2022-08-24T01:02:43.738Z,19.35
2022-08-24T01:03:46.511Z,19.34
2022-08-24T01:04:54.748Z,19.33
2022-08-24T01:05:56.922Z,19.32
2022-08-24T01:07:00.192Z,19.31
2022-08-24T01:08:06.329Z,19.29
2022-08-24T01:09:09.392Z,19.27
2022-08-24T01:10:16.314Z,19.27
2022-08-24T01:11:24.623Z,19.26
2022-08-24T01:12:28.158Z,19.23
2022-08-24T01:13:34.014Z,19.24
2022-08-24T01:14:36.883Z,19.23
2022-08-24T01:15:48.998Z,19.21
2022-08-24T01:17:10.010Z,19.20
2022-08-24T01:18:34.619Z,19.17
2022-08-24T01:19:39.379Z,19.14
2022-08-24T01:20:45.178Z,19.07
2022-08-24T01:21:58.451Z,19.09
2022-08-24T01:23:11.597Z,19.07
2022-08-24T01:24:15.410Z,19.04
2022-08-24T01:25:18.676Z,19.03
2022-08-24T01:26:25.596Z,19.01
2022-08-24T01:27:30.420Z,18.96
2022-08-24T01:28:33.053Z,18.97
2022-08-24T01:29:36.627Z,18.96
2022-08-24T01:30:39.783Z,18.89
2022-08-24T01:31:43.288Z,18.93
2022-08-24T01:32:53.651Z,18.89
2022-08-24T01:33:57.151Z,18.89
2022-08-24T01:34:59.638Z,18.88
2022-08-24T01:36:06.206Z,18.87
2022-08-24T01:37:10.916Z,18.86
2022-08-24T01:38:16.791Z,18.84
2022-08-24T01:39:24.265Z,18.82
2022-08-24T01:40:34.513Z,18.82
2022-08-24T01:41:36.916Z,18.80
2022-08-24T01:42:40.180Z,18.79
2022-08-24T01:43:42.257Z,18.75
2022-08-24T01:44:46.816Z,18.76
2022-08-24T01:45:48.924Z,18.74
2022-08-24T01:46:54.644Z,18.72
2022-08-24T01:47:58.639Z,18.72
2022-08-24T01:49:02.030Z,18.73
2022-08-24T01:50:04.702Z,18.71
2022-08-24T01:51:08.007Z,18.71
2022-08-24T01:52:13.620Z,18.69
2022-08-24T01:53:16.921Z,18.69
2022-08-24T01:54:20.695Z,18.68
2022-08-24T01:55:23.943Z,18.67
2022-08-24T01:56:26.447Z,18.66
2022-08-24T01:57:32.351Z,18.65
2022-08-24T01:58:34.585Z,18.65
2022-08-24T01:59:37.806Z,18.64
2022-08-24T02:00:40.453Z,18.63
2022-08-24T02:01:49.780Z,18.62
2022-08-24T02:02:53.807Z,18.59
2022-08-24T02:03:59.200Z,18.60
2022-08-24T02:05:01.397Z,18.59
2022-08-24T02:06:05.390Z,18.59
2022-08-24T02:07:09.372Z,18.59
2022-08-24T02:08:12.368Z,18.55
2022-08-24T02:09:14.456Z,18.58
2022-08-24T02:10:19.420Z,18.57
2022-08-24T02:11:24.814Z,18.58
2022-08-24T02:12:28.258Z,18.57
2022-08-24T02:13:31.220Z,18.55
2022-08-24T02:14:34.423Z,18.55
2022-08-24T02:15:40.185Z,18.52
2022-08-24T02:16:45.703Z,18.53
2022-08-24T02:17:48.311Z,18.50
2022-08-24T02:18:51.710Z,18.51
2022-08-24T02:19:53.991Z,18.50
2022-08-24T02:20:57.644Z,18.49
2022-08-24T02:22:00.512Z,18.48
2022-08-24T02:23:05.090Z,18.47
2022-08-24T02:24:08.085Z,18.46
2022-08-24T02:25:11.152Z,18.46
2022-08-24T02:26:18.165Z,18.42
2022-08-24T02:27:21.306Z,18.45
2022-08-24T02:28:23.529Z,18.43
2022-08-24T02:29:27.371Z,18.39
2022-08-24T02:30:30.792Z,18.39
2022-08-24T02:31:35.244Z,18.40
2022-08-24T02:32:37.502Z,18.39
2022-08-24T02:33:41.236Z,18.38
2022-08-24T02:34:44.070Z,18.38
2022-08-24T02:35:47.221Z,18.37
2022-08-24T02:36:49.567Z,18.36
2022-08-24T02:37:52.997Z,18.35
2022-08-24T02:38:55.478Z,18.33
2022-08-24T02:39:59.852Z,18.33
2022-08-24T02:41:02.371Z,18.33
2022-08-24T02:42:08.197Z,18.32
2022-08-24T02:43:10.381Z,18.32
2022-08-24T02:44:13.488Z,18.31
2022-08-24T02:45:16.119Z,18.31
2022-08-24T02:46:20.941Z,18.30
2022-08-24T02:47:23.331Z,18.29
2022-08-24T02:48:41.753Z,18.28
2022-08-24T02:49:43.834Z,18.27
2022-08-24T02:50:49.969Z,18.26
2022-08-24T02:51:52.115Z,18.26
2022-08-24T02:52:57.667Z,18.21
2022-08-24T02:54:01.196Z,18.23
2022-08-24T02:55:06.312Z,18.24
2022-08-24T02:56:08.364Z,18.24
2022-08-24T02:57:12.890Z,18.23
2022-08-24T02:58:17.126Z,18.19
2022-08-24T02:59:23.462Z,18.22
2022-08-24T03:00:26.588Z,18.23
2022-08-24T03:01:30.835Z,18.23
2022-08-24T03:02:33.824Z,18.21
2022-08-24T03:03:36.996Z,18.22
2022-08-24T03:04:39.086Z,18.21
2022-08-24T03:05:42.279Z,18.22
2022-08-24T03:06:44.728Z,18.22
2022-08-24T03:07:48.165Z,18.21
2022-08-24T03:08:54.727Z,18.22
2022-08-24T03:09:59.917Z,18.21
2022-08-24T03:11:02.641Z,18.21
2022-08-24T03:12:06.518Z,18.22
2022-08-24T03:13:10.931Z,18.23
2022-08-24T03:14:14.571Z,18.22
2022-08-24T03:15:17.855Z,18.23
2022-08-24T03:16:21.758Z,18.24
2022-08-24T03:17:24.358Z,18.23
2022-08-24T03:18:28.280Z,18.23
2022-08-24T03:19:30.411Z,18.23
2022-08-24T03:20:33.704Z,18.24
2022-08-24T03:21:36.084Z,18.24
2022-08-24T03:22:39.574Z,18.23
2022-08-24T03:23:41.765Z,18.24
2022-08-24T03:24:44.812Z,18.24
2022-08-24T03:25:48.931Z,18.24
2022-08-24T03:26:52.007Z,18.18
2022-08-24T03:27:54.307Z,18.22
2022-08-24T03:28:59.129Z,18.19
2022-08-24T03:30:03.442Z,18.23
2022-08-24T03:31:07.007Z,18.23
2022-08-24T03:32:09.276Z,18.21
2022-08-24T03:33:13.040Z,18.21
2022-08-24T03:34:15.421Z,18.21
2022-08-24T03:35:21.850Z,18.16
2022-08-24T03:36:24.876Z,18.19
2022-08-24T03:37:26.934Z,18.17
2022-08-24T03:38:30.105Z,18.16
2022-08-24T03:39:32.300Z,18.14
2022-08-24T03:40:35.512Z,18.14
2022-08-24T03:41:37.592Z,18.10
2022-08-24T03:42:41.028Z,18.10
2022-08-24T03:43:46.789Z,18.07
2022-08-24T03:44:52.903Z,18.00
2022-08-24T03:45:54.998Z,18.04
2022-08-24T03:46:58.114Z,18.03
2022-08-24T03:48:02.312Z,18.02
2022-08-24T03:49:09.961Z,17.99
2022-08-24T03:50:12.877Z,17.98
2022-08-24T03:51:19.185Z,17.96
2022-08-24T03:52:23.469Z,17.95
2022-08-24T03:53:29.198Z,17.95
2022-08-24T03:54:32.071Z,17.93
2022-08-24T03:55:35.156Z,17.93
2022-08-24T03:56:37.893Z,17.88
2022-08-24T03:57:41.458Z,17.90
2022-08-24T03:58:43.478Z,17.89
2022-08-24T03:59:46.753Z,17.89
2022-08-24T04:00:51.077Z,17.87
2022-08-24T04:01:56.128Z,17.85
2022-08-24T04:02:58.721Z,17.84
2022-08-24T04:04:04.641Z,17.84
2022-08-24T04:05:12.374Z,17.80
2022-08-24T04:06:19.018Z,17.80
2022-08-24T04:07:21.067Z,17.79
2022-08-24T04:08:24.361Z,17.77
2022-08-24T04:09:26.551Z,17.76
2022-08-24T04:10:35.257Z,17.75
2022-08-24T04:11:41.075Z,17.74
2022-08-24T04:12:45.740Z,17.72
2022-08-24T04:13:49.413Z,17.70
2022-08-24T04:14:52.935Z,17.70
2022-08-24T04:15:56.356Z,17.68
2022-08-24T04:17:00.414Z,17.67
2022-08-24T04:18:08.237Z,17.66
2022-08-24T04:19:11.839Z,17.65
2022-08-24T04:20:13.885Z,17.64
2022-08-24T04:21:18.459Z,17.62
2022-08-24T04:22:20.591Z,17.61
2022-08-24T04:23:23.873Z,17.61
2022-08-24T04:24:41.405Z,17.59
2022-08-24T04:25:46.593Z,17.59
2022-08-24T04:26:48.900Z,17.57
2022-08-24T04:27:52.019Z,17.55
2022-08-24T04:28:54.240Z,17.56
2022-08-24T04:29:57.316Z,17.54
2022-08-24T04:31:05.576Z,17.53
2022-08-24T04:32:16.431Z,17.53
2022-08-24T04:33:19.546Z,17.52
2022-08-24T04:34:23.305Z,17.51
2022-08-24T04:35:26.188Z,17.52
2022-08-24T04:36:29.425Z,17.51
2022-08-24T04:37:31.532Z,17.47
2022-08-24T04:38:34.837Z,17.52
2022-08-24T04:39:53.223Z,17.52
2022-08-24T04:41:05.066Z,17.51
2022-08-24T04:42:09.134Z,17.52
2022-08-24T04:43:19.785Z,17.52
2022-08-24T04:44:23.311Z,17.52
2022-08-24T04:45:26.033Z,17.51
2022-08-24T04:46:31.013Z,17.52
2022-08-24T04:47:33.069Z,17.53
2022-08-24T04:48:36.580Z,17.51
2022-08-24T04:49:39.625Z,17.53
2022-08-24T04:50:44.338Z,17.53
2022-08-24T04:51:46.445Z,17.54
2022-08-24T04:52:49.493Z,17.55
2022-08-24T04:53:52.291Z,17.55
2022-08-24T04:54:55.604Z,17.56
2022-08-24T04:56:00.758Z,17.56
2022-08-24T04:57:04.137Z,17.54
2022-08-24T04:58:06.255Z,17.58
2022-08-24T04:59:09.593Z,17.57
2022-08-24T05:00:12.776Z,17.58
2022-08-24T05:01:21.603Z,17.61
2022-08-24T05:02:26.335Z,17.61
2022-08-24T05:03:32.058Z,17.62
2022-08-24T05:04:34.230Z,17.64
2022-08-24T05:05:41.778Z,17.62
2022-08-24T05:06:43.871Z,17.67
2022-08-24T05:07:46.917Z,17.67
2022-08-24T05:08:49.730Z,17.68
2022-08-24T05:09:52.878Z,17.70
2022-08-24T05:10:56.237Z,17.70
2022-08-24T05:11:59.315Z,17.72
2022-08-24T05:13:04.538Z,17.73
2022-08-24T05:14:07.927Z,17.74
2022-08-24T05:15:13.280Z,17.76
2022-08-24T05:16:19.685Z,17.76
2022-08-24T05:17:22.393Z,17.79
2022-08-24T05:18:29.831Z,17.80
2022-08-24T05:19:31.872Z,17.81
2022-08-24T05:20:36.824Z,17.83
2022-08-24T05:21:40.164Z,17.85
2022-08-24T05:22:43.290Z,17.87
2022-08-24T05:23:45.409Z,17.87
2022-08-24T05:24:49.654Z,17.86
2022-08-24T05:25:51.912Z,17.92
2022-08-24T05:26:55.252Z,17.93
2022-08-24T05:27:58.263Z,17.94
2022-08-24T05:29:03.201Z,17.96
2022-08-24T05:30:25.507Z,17.98
2022-08-24T05:31:32.314Z,18.00
2022-08-24T05:32:39.952Z,18.01
2022-08-24T05:33:44.010Z,18.05
2022-08-24T05:34:47.620Z,18.05
2022-08-24T05:35:50.026Z,18.08
2022-08-24T05:36:53.090Z,18.06
2022-08-24T05:38:18.027Z,18.14
2022-08-24T05:39:20.097Z,18.16
2022-08-24T05:40:33.357Z,18.18
2022-08-24T05:41:36.430Z,18.18
2022-08-24T05:42:48.319Z,18.21
2022-08-24T05:43:51.512Z,18.23
2022-08-24T05:44:54.740Z,18.24
2022-08-24T05:45:57.581Z,18.25
2022-08-24T05:47:01.453Z,18.27
2022-08-24T05:48:04.199Z,18.28
2022-08-24T05:49:27.362Z,18.31
2022-08-24T05:50:29.453Z,18.33
2022-08-24T05:51:33.146Z,18.34
2022-08-24T05:52:44.349Z,18.35
2022-08-24T05:53:46.716Z,18.37
2022-08-24T05:54:53.508Z,18.39
2022-08-24T05:55:55.945Z,18.41
2022-08-24T05:57:04.444Z,18.41
2022-08-24T05:58:11.091Z,18.45
2022-08-24T05:59:22.666Z,18.49
2022-08-24T06:00:25.688Z,18.50
2022-08-24T06:01:29.494Z,18.52
2022-08-24T06:02:32.275Z,18.55
2022-08-24T06:03:35.682Z,18.57
2022-08-24T06:04:40.335Z,18.60
2022-08-24T06:05:44.249Z,18.63
2022-08-24T06:06:48.844Z,18.65
2022-08-24T06:07:51.769Z,18.67
2022-08-24T06:08:59.087Z,18.70
2022-08-24T06:10:20.277Z,18.73
2022-08-24T06:11:30.529Z,18.74
2022-08-24T06:12:33.701Z,18.82
2022-08-24T06:13:36.819Z,18.85
2022-08-24T06:14:39.831Z,18.87
2022-08-24T06:15:54.906Z,18.88
2022-08-24T06:17:09.542Z,18.94
2022-08-24T06:18:12.601Z,18.97
2022-08-24T06:19:19.099Z,18.99
2022-08-24T06:20:23.403Z,19.03
2022-08-24T06:21:28.645Z,19.06
2022-08-24T06:22:33.308Z,19.09
2022-08-24T06:23:36.063Z,19.12
2022-08-24T06:24:58.886Z,19.15
2022-08-24T06:26:23.188Z,19.20
2022-08-24T06:27:26.593Z,19.21
2022-08-24T06:28:32.285Z,19.27
2022-08-24T06:29:35.847Z,19.30
2022-08-24T06:31:03.916Z,19.31
2022-08-24T06:32:06.481Z,19.38
2022-08-24T06:33:10.692Z,19.40
2022-08-24T06:34:19.717Z,19.44
2022-08-24T06:35:24.694Z,19.47
2022-08-24T06:36:28.114Z,19.50
2022-08-24T06:37:30.684Z,19.53
2022-08-24T06:38:35.410Z,19.56
2022-08-24T06:39:40.035Z,19.61
2022-08-24T06:40:43.405Z,19.64
2022-08-24T06:41:46.352Z,19.67
2022-08-24T06:42:56.360Z,19.70
2022-08-24T06:44:10.962Z,19.76
2022-08-24T06:45:25.111Z,19.78
2022-08-24T06:46:32.454Z,19.82
2022-08-24T06:47:36.050Z,19.85
2022-08-24T06:48:38.234Z,19.89
2022-08-24T06:49:42.793Z,19.93
2022-08-24T06:50:47.423Z,19.96
2022-08-24T06:51:51.010Z,19.99
2022-08-24T06:52:54.071Z,20.03
2022-08-24T06:53:57.598Z,20.07
2022-08-24T06:54:59.707Z,20.10
2022-08-24T06:56:03.010Z,20.13
2022-08-24T06:57:09.147Z,20.17
2022-08-24T06:58:11.211Z,20.20
2022-08-24T06:59:14.220Z,20.24
2022-08-24T07:00:17.831Z,20.28
2022-08-24T07:01:23.374Z,20.32
2022-08-24T07:02:25.906Z,20.37
2022-08-24T07:03:29.452Z,20.41
2022-08-24T07:04:41.206Z,20.44
2022-08-24T07:06:05.162Z,20.49
2022-08-24T07:07:18.153Z,20.54
2022-08-24T07:08:20.958Z,20.57
2022-08-24T07:09:24.947Z,20.61
2022-08-24T07:10:28.072Z,20.65
2022-08-24T07:11:32.866Z,20.67
2022-08-24T07:12:36.498Z,20.73
2022-08-24T07:13:39.806Z,20.77
2022-08-24T07:14:42.056Z,20.82
2022-08-24T07:15:46.003Z,20.85
2022-08-24T07:16:49.289Z,20.90
2022-08-24T07:17:53.499Z,20.95
2022-08-24T07:18:55.812Z,20.98
2022-08-24T07:19:58.825Z,21.03
2022-08-24T07:21:42.328Z,21.10
2022-08-24T07:22:45.736Z,21.17
2022-08-24T07:23:51.014Z,21.22
2022-08-24T07:24:54.404Z,21.27
2022-08-24T07:25:57.426Z,21.32
2022-08-24T07:27:02.282Z,21.37
2022-08-24T07:28:09.370Z,21.42
2022-08-24T07:29:45.953Z,21.47
2022-08-24T07:30:42.017Z,21.54
2022-08-24T07:31:44.579Z,21.53
2022-08-24T07:33:14.275Z,21.60
2022-08-24T07:34:16.904Z,21.67
2022-08-24T07:35:20.954Z,21.70
2022-08-24T07:36:23.143Z,21.73
2022-08-24T07:37:40.259Z,21.75
2022-08-24T07:38:43.697Z,21.79
2022-08-24T07:39:46.854Z,21.80
2022-08-24T07:41:14.361Z,21.84
2022-08-24T07:42:14.979Z,21.87
2022-08-24T07:43:21.989Z,21.90
2022-08-24T07:44:26.192Z,21.93
2022-08-24T07:45:30.333Z,21.96
2022-08-24T07:46:32.779Z,21.95
2022-08-24T07:47:40.499Z,22.05
2022-08-24T07:49:11.642Z,22.07
2022-08-24T07:50:17.305Z,22.13
2022-08-24T07:51:19.825Z,22.16
2022-08-24T07:52:22.880Z,22.19
2022-08-24T07:53:32.396Z,22.23
2022-08-24T07:54:46.867Z,22.25
2022-08-24T07:55:57.387Z,22.30
2022-08-24T07:57:02.299Z,22.34
2022-08-24T07:58:05.506Z,22.36
2022-08-24T07:59:12.998Z,22.38
2022-08-24T08:00:19.622Z,22.44
2022-08-24T08:01:27.446Z,22.47
2022-08-24T08:02:34.992Z,22.52
2022-08-24T08:03:39.512Z,22.56
2022-08-24T08:04:41.986Z,22.59
2022-08-24T08:05:45.209Z,22.62
2022-08-24T08:06:48.495Z,22.68
2022-08-24T08:07:52.237Z,22.72
2022-08-24T08:08:57.431Z,22.77
2022-08-24T08:10:00.211Z,22.80
2022-08-24T08:11:03.921Z,22.84
2022-08-24T08:12:07.432Z,22.88
2022-08-24T08:13:11.654Z,22.91
2022-08-24T08:14:14.839Z,22.95
2022-08-24T08:15:18.008Z,22.99
2022-08-24T08:16:31.916Z,23.03
2022-08-24T08:17:34.069Z,23.07
2022-08-24T08:18:37.421Z,23.11
2022-08-24T08:19:44.417Z,23.15
2022-08-24T08:20:48.653Z,23.19
2022-08-24T08:22:12.709Z,23.25
2022-08-24T08:24:11.798Z,23.29
2022-08-24T08:25:19.245Z,23.38
2022-08-24T08:26:21.413Z,23.43
2022-08-24T08:27:35.819Z,23.48
2022-08-24T08:28:38.333Z,23.53
2022-08-24T08:29:43.112Z,23.57
2022-08-24T08:30:45.756Z,23.59
2022-08-24T08:31:49.917Z,23.64
2022-08-24T08:32:52.007Z,23.66
2022-08-24T08:33:55.082Z,23.70
2022-08-24T08:35:01.971Z,23.75
2022-08-24T08:36:10.071Z,23.78
2022-08-24T08:37:17.382Z,23.82
2022-08-24T08:38:20.786Z,23.85
2022-08-24T08:39:25.899Z,23.89
2022-08-24T08:40:55.423Z,23.92
2022-08-24T08:42:35.318Z,23.97
2022-08-24T08:43:43.345Z,24.00
2022-08-24T08:45:03.399Z,24.04
2022-08-24T08:46:23.389Z,24.06
2022-08-24T08:48:42.829Z,24.14
2022-08-24T08:50:03.905Z,24.18
2022-08-24T08:51:52.853Z,24.23
2022-08-24T08:53:30.107Z,24.29
2022-08-24T08:54:45.927Z,24.32
2022-08-24T08:56:03.265Z,24.35
2022-08-24T08:57:23.745Z,24.37
2022-08-24T08:58:40.485Z,24.39
2022-08-24T09:00:09.967Z,24.44
2022-08-24T09:01:32.794Z,24.47
2022-08-24T09:03:03.300Z,24.52
2022-08-24T09:04:36.748Z,24.58
2022-08-24T09:06:23.942Z,24.64
2022-08-24T09:07:40.716Z,24.68
2022-08-24T09:09:07.207Z,24.73
2022-08-24T09:10:37.160Z,24.78
2022-08-24T09:11:54.744Z,24.82
2022-08-24T09:13:22.070Z,24.85
2022-08-24T09:15:01.595Z,24.85
2022-08-24T09:16:18.328Z,24.94
2022-08-24T09:17:37.403Z,24.97
2022-08-24T09:18:55.038Z,24.98
2022-08-24T09:20:13.955Z,25.03
2022-08-24T09:21:32.800Z,25.07
2022-08-24T09:22:40.612Z,25.09
2022-08-24T09:23:53.973Z,25.13
2022-08-24T09:25:12.209Z,25.18
2022-08-24T09:26:29.211Z,25.25
2022-08-24T09:27:46.565Z,25.29
2022-08-24T09:29:06.643Z,25.36
2022-08-24T09:30:12.020Z,25.40
2022-08-24T09:31:36.237Z,25.44
2022-08-24T09:33:00.369Z,25.48
2022-08-24T09:34:09.157Z,25.53
2022-08-24T09:35:26.193Z,25.58
2022-08-24T09:36:44.834Z,25.63
2022-08-24T09:37:59.980Z,25.68
2022-08-24T09:39:11.708Z,25.71
2022-08-24T09:40:29.893Z,25.75
2022-08-24T09:42:03.206Z,25.78
2022-08-24T09:43:44.962Z,25.81
2022-08-24T09:45:21.457Z,25.85
2022-08-24T09:47:00.271Z,25.90
2022-08-24T09:48:53.945Z,25.94
2022-08-24T09:52:42.103Z,26.06
2022-08-24T09:54:03.271Z,26.11
2022-08-24T09:55:34.488Z,26.16
2022-08-24T09:57:11.690Z,26.22
2022-08-24T09:58:26.844Z,26.26
2022-08-24T09:59:49.700Z,26.26
2022-08-24T10:01:05.798Z,26.38
2022-08-24T10:02:40.292Z,26.41
2022-08-24T10:03:56.242Z,26.44
2022-08-24T10:05:10.029Z,26.46
2022-08-24T10:06:31.339Z,26.50
2022-08-24T10:07:44.986Z,26.54
2022-08-24T10:09:11.152Z,26.57
2022-08-24T10:10:32.121Z,26.62
2022-08-24T10:11:44.345Z,26.65
2022-08-24T10:12:59.895Z,26.70
2022-08-24T10:14:09.611Z,26.75
2022-08-24T10:15:17.741Z,26.79
2022-08-24T10:16:34.185Z,26.85
2022-08-24T10:17:47.272Z,26.90
2022-08-24T10:19:01.251Z,26.93
2022-08-24T10:20:15.104Z,26.95
2022-08-24T10:21:34.739Z,26.98
2022-08-24T10:22:58.977Z,27.02
2022-08-24T10:24:29.629Z,27.05
2022-08-24T10:25:40.036Z,27.06
2022-08-24T10:27:02.267Z,27.10
2022-08-24T10:28:44.262Z,27.12
2022-08-24T10:30:03.564Z,27.17
2022-08-24T10:31:12.677Z,27.21
2022-08-24T10:32:32.164Z,27.25
2022-08-24T10:33:42.729Z,27.28
2022-08-24T10:35:00.196Z,27.30
2022-08-24T10:36:23.471Z,27.36
2022-08-24T10:37:50.963Z,27.39
2022-08-24T10:39:31.584Z,27.41
2022-08-24T10:40:42.388Z,27.39
2022-08-24T10:42:11.920Z,27.44
2022-08-24T10:43:55.460Z,27.46
2022-08-24T10:45:04.043Z,27.49
2022-08-24T10:46:36.676Z,27.53
2022-08-24T10:47:53.745Z,27.56
2022-08-24T10:49:28.609Z,27.61
2022-08-24T10:50:48.003Z,27.66
2022-08-24T10:52:10.549Z,27.70
2022-08-24T10:53:23.013Z,27.74
2022-08-24T10:54:25.459Z,27.75
2022-08-24T10:55:31.276Z,27.76
2022-08-24T10:56:41.810Z,27.79
2022-08-24T10:57:53.929Z,27.78
2022-08-24T10:59:08.931Z,27.81
2022-08-24T11:00:18.191Z,27.78
2022-08-24T11:01:30.151Z,27.78
2022-08-24T11:02:35.392Z,27.83
2022-08-24T11:03:49.990Z,27.90
2022-08-24T11:04:57.547Z,27.95
2022-08-24T11:05:59.699Z,27.98
2022-08-24T11:07:10.701Z,28.00
2022-08-24T11:08:20.030Z,28.04
2022-08-24T11:09:23.100Z,28.08
2022-08-24T11:10:27.853Z,28.11
2022-08-24T11:11:34.272Z,28.15
2022-08-24T11:12:38.742Z,28.17
2022-08-24T11:13:53.958Z,28.20
2022-08-24T11:15:00.258Z,28.21
2022-08-24T11:16:04.073Z,28.23
2022-08-24T11:17:16.461Z,28.27
2022-08-24T11:18:19.014Z,28.27
2022-08-24T11:19:35.062Z,28.34
2022-08-24T11:20:43.844Z,28.35
2022-08-24T11:21:51.964Z,28.38
2022-08-24T11:23:03.430Z,28.41
2022-08-24T11:24:08.094Z,28.45
2022-08-24T11:25:17.910Z,28.50
2022-08-24T11:26:22.212Z,28.55
2022-08-24T11:27:31.992Z,28.60
2022-08-24T11:28:38.999Z,28.67
2022-08-24T11:30:03.314Z,28.74
2022-08-24T11:31:12.491Z,28.80
2022-08-24T11:32:26.319Z,28.85
2022-08-24T11:33:32.795Z,28.89
2022-08-24T11:34:38.090Z,28.93
2022-08-24T11:35:41.289Z,28.97
2022-08-24T11:36:44.097Z,28.98
2022-08-24T11:37:48.206Z,28.99
2022-08-24T11:39:11.163Z,29.03
2022-08-24T11:40:16.225Z,29.03
2022-08-24T11:41:27.112Z,29.05
2022-08-24T11:42:42.269Z,29.05
2022-08-24T11:43:57.260Z,29.10
2022-08-24T11:45:07.906Z,29.10
2022-08-24T11:46:25.997Z,29.18
2022-08-24T11:47:46.119Z,29.23
2022-08-24T11:49:02.932Z,29.28
2022-08-24T11:50:21.090Z,29.16
2022-08-24T11:51:33.809Z,29.35
2022-08-24T11:52:48.696Z,29.41
2022-08-24T11:54:01.832Z,29.47
2022-08-24T11:55:13.788Z,29.49
2022-08-24T11:56:25.982Z,29.54
2022-08-24T11:57:34.802Z,29.57
2022-08-24T11:58:50.387Z,29.61
2022-08-24T11:59:57.827Z,29.62
2022-08-24T12:01:07.941Z,29.65
2022-08-24T12:02:17.698Z,29.66
2022-08-24T12:03:47.379Z,29.69
2022-08-24T12:04:59.666Z,29.70
2022-08-24T12:06:24.193Z,29.79
2022-08-24T12:07:52.072Z,29.83
2022-08-24T12:09:02.199Z,29.80
2022-08-24T12:10:22.029Z,29.81
2022-08-24T12:11:35.283Z,29.85
2022-08-24T12:12:47.182Z,29.86
2022-08-24T12:13:56.692Z,29.86
2022-08-24T12:15:06.538Z,29.88
2022-08-24T12:16:14.111Z,29.89
2022-08-24T12:17:24.416Z,29.90
2022-08-24T12:18:34.396Z,29.90
2022-08-24T12:19:41.396Z,29.91
2022-08-24T12:20:48.114Z,29.93
2022-08-24T12:21:58.696Z,29.95
2022-08-24T12:23:07.607Z,29.96
2022-08-24T12:24:16.407Z,29.99
2022-08-24T12:25:38.407Z,29.99
2022-08-24T12:26:45.243Z,30.02
2022-08-24T12:27:48.373Z,30.02
2022-08-24T12:28:54.601Z,30.02
2022-08-24T12:30:05.482Z,30.09
2022-08-24T12:31:16.308Z,30.11
2022-08-24T12:32:20.536Z,30.16
2022-08-24T12:33:29.269Z,30.19
2022-08-24T12:34:44.152Z,30.20
2022-08-24T12:35:49.954Z,30.20
2022-08-24T12:37:03.488Z,30.19
2022-08-24T12:38:19.593Z,30.19
2022-08-24T12:39:26.308Z,30.19
2022-08-24T12:40:33.012Z,30.23
2022-08-24T12:41:45.501Z,30.26
2022-08-24T12:42:52.528Z,30.26
2022-08-24T12:44:01.578Z,30.36
2022-08-24T12:45:08.871Z,30.40
2022-08-24T12:46:13.068Z,30.44
2022-08-24T12:47:23.848Z,30.47
2022-08-24T12:48:31.382Z,30.49
2022-08-24T12:49:44.748Z,30.47
2022-08-24T12:51:07.831Z,30.49
2022-08-24T12:53:13.407Z,30.47
2022-08-24T12:54:45.130Z,30.47
2022-08-24T12:56:08.125Z,30.48
2022-08-24T12:57:25.222Z,30.47
2022-08-24T12:58:54.645Z,30.52
2022-08-24T13:00:03.063Z,30.53
2022-08-24T13:01:07.525Z,30.57
2022-08-24T13:02:29.371Z,30.61
2022-08-24T13:03:36.040Z,30.65
2022-08-24T13:04:44.676Z,30.73
2022-08-24T13:05:50.326Z,30.79
2022-08-24T13:07:01.992Z,30.86
2022-08-24T13:08:15.511Z,30.94
2022-08-24T13:09:29.413Z,31.05
2022-08-24T13:10:44.131Z,31.17
2022-08-24T13:11:46.212Z,31.31
2022-08-24T13:13:14.554Z,31.47
2022-08-24T13:14:22.191Z,31.62
2022-08-24T13:16:07.138Z,31.81
2022-08-24T13:17:12.927Z,31.92
2022-08-24T13:18:57.866Z,32.12
2022-08-24T13:20:18.903Z,32.26
2022-08-24T13:21:54.517Z,32.43
2022-08-24T13:23:15.826Z,32.57
2022-08-24T13:24:52.122Z,32.70
2022-08-24T13:26:01.292Z,32.77
2022-08-24T13:27:45.185Z,32.86
2022-08-24T13:28:51.068Z,32.95
2022-08-24T13:30:06.530Z,33.06
2022-08-24T13:31:31.600Z,33.15
2022-08-24T13:32:39.954Z,33.23
2022-08-24T13:33:46.982Z,33.30
2022-08-24T13:34:51.360Z,33.35
2022-08-24T13:35:59.214Z,33.39
2022-08-24T13:37:15.965Z,33.47
2022-08-24T13:38:42.723Z,33.56
2022-08-24T13:40:05.605Z,33.66
2022-08-24T13:41:18.851Z,33.73
2022-08-24T13:42:39.642Z,33.80
2022-08-24T13:43:51.899Z,33.85
2022-08-24T13:45:17.463Z,33.87
2022-08-24T13:46:30.015Z,33.91
2022-08-24T13:47:49.335Z,33.92
2022-08-24T13:48:59.415Z,33.90
2022-08-24T13:50:11.307Z,33.83
2022-08-24T13:51:30.204Z,33.73
2022-08-24T13:52:43.266Z,33.60
2022-08-24T13:53:59.042Z,33.47
2022-08-24T13:55:16.255Z,33.29
2022-08-24T13:56:34.630Z,33.13
2022-08-24T13:57:45.497Z,32.93
2022-08-24T13:58:59.831Z,32.78
2022-08-24T14:00:30.422Z,32.66
2022-08-24T14:01:39.754Z,32.61
2022-08-24T14:03:00.251Z,32.56
2022-08-24T14:04:20.341Z,32.52
2022-08-24T14:05:33.839Z,32.46
2022-08-24T14:06:41.584Z,32.38
2022-08-24T14:07:56.382Z,32.25
2022-08-24T14:09:14.794Z,32.09
2022-08-24T14:10:38.565Z,31.94
2022-08-24T14:11:59.082Z,31.78
2022-08-24T14:13:04.974Z,31.66
2022-08-24T14:14:15.217Z,31.54
2022-08-24T14:15:26.290Z,31.45
2022-08-24T14:16:57.369Z,31.39
2022-08-24T14:18:10.657Z,31.28
2022-08-24T14:19:20.967Z,31.20
2022-08-24T14:20:56.610Z,31.12
2022-08-24T14:22:08.514Z,31.02
2022-08-24T14:23:27.161Z,30.97
2022-08-24T14:24:41.433Z,30.90
2022-08-24T14:25:49.202Z,30.86
2022-08-24T14:27:08.253Z,30.80
2022-08-24T14:28:33.388Z,30.71
2022-08-24T14:29:45.355Z,30.67
2022-08-24T14:30:54.389Z,30.61
2022-08-24T14:32:34.816Z,30.58
2022-08-24T14:33:52.037Z,30.55
2022-08-24T14:35:05.938Z,30.54
2022-08-24T14:36:18.748Z,30.54
2022-08-24T14:37:37.900Z,30.57
2022-08-24T14:38:59.736Z,30.63
2022-08-24T14:40:16.392Z,30.73
2022-08-24T14:41:30.268Z,30.87
2022-08-24T14:42:37.306Z,31.02
2022-08-24T14:44:06.873Z,31.25
2022-08-24T14:45:12.857Z,31.51
2022-08-24T14:46:24.282Z,31.72
2022-08-24T14:47:44.554Z,31.88
2022-08-24T14:48:55.483Z,32.04
2022-08-24T14:50:12.705Z,32.15
2022-08-24T14:51:38.232Z,32.26
2022-08-24T14:52:52.868Z,32.37
2022-08-24T14:54:02.421Z,32.50
2022-08-24T14:55:13.765Z,32.63
2022-08-24T14:56:25.880Z,32.76
2022-08-24T14:57:44.581Z,32.87
2022-08-24T14:58:51.707Z,33.00
2022-08-24T15:00:07.736Z,33.13
2022-08-24T15:01:36.171Z,33.23
2022-08-24T15:02:56.087Z,33.28